Time;durP1;ratioP1;P1;durP2;ratioP2;P2;SDS_P1;SDS_P2;PMS_P1;PMS_P2;Temp;Humidity;BMP_temperature;BMP_pressure;BME280_temperature;BME280_humidity;BME280_pressure;Samples;Min_cycle;Max_cycle;Signal;HPM_P1;HPM_P2
2022/03/10 00:01:55;;;;;;;51.13;27.90;;;;;;;;;;4937335;28;93822;-72
2022/03/10 00:04:22;;;;;;;54.65;28.27;;;;;;;;;;4937079;28;94071;-71
2022/03/10 00:06:48;;;;;;;55.35;27.98;;;;;;;;;;4941235;28;92393;-72
2022/03/10 00:09:15;;;;;;;55.13;29.80;;;;;;;;;;4939563;28;95471;-72
2022/03/10 00:11:41;;;;;;;52.22;28.50;;;;;;;;;;4942727;28;93494;-71
2022/03/10 00:14:10;;;;;;;57.60;28.67;;;;;;;;;;4940082;28;93326;-71
2022/03/10 00:16:37;;;;;;;46.72;28.10;;;;;;;;;;4939882;28;93155;-72
2022/03/10 00:19:05;;;;;;;55.88;28.95;;;;;;;;;;4939921;28;92808;-71
2022/03/10 00:21:32;;;;;;;50.63;27.98;;;;;;;;;;4939947;28;93374;-72
2022/03/10 00:23:58;;;;;;;50.65;29.10;;;;;;;;;;4939601;28;94208;-71
2022/03/10 00:26:24;;;;;;;56.70;29.85;;;;;;;;;;4939349;28;91690;-72
2022/03/10 00:28:51;;;;;;;56.95;29.33;;;;;;;;;;4939704;28;93274;-72
2022/03/10 00:31:17;;;;;;;55.88;29.73;;;;;;;;;;4939707;28;93940;-72
2022/03/10 00:33:45;;;;;;;57.00;30.02;;;;;;;;;;4941294;28;94730;-71
2022/03/10 00:36:11;;;;;;;51.78;29.45;;;;;;;;;;4939604;28;93631;-71
2022/03/10 00:38:38;;;;;;;54.13;29.90;;;;;;;;;;4939348;28;92290;-72
2022/03/10 00:41:04;;;;;;;53.45;29.42;;;;;;;;;;4939420;28;93304;-72
2022/03/10 00:43:31;;;;;;;59.40;29.63;;;;;;;;;;4938519;28;93621;-71
2022/03/10 00:45:57;;;;;;;57.90;29.90;;;;;;;;;;4939154;28;92345;-72
2022/03/10 00:48:23;;;;;;;49.72;28.77;;;;;;;;;;4939560;28;93946;-71
2022/03/10 00:50:50;;;;;;;55.97;29.65;;;;;;;;;;4938936;28;92736;-71
2022/03/10 00:53:16;;;;;;;53.88;29.15;;;;;;;;;;4940815;28;93308;-72
2022/03/10 00:55:42;;;;;;;50.88;29.45;;;;;;;;;;4939343;28;92664;-72
2022/03/10 00:58:09;;;;;;;56.25;30.10;;;;;;;;;;4937897;28;95066;-72
2022/03/10 01:00:35;;;;;;;52.33;27.55;;;;;;;;;;4939231;28;96000;-72
2022/03/10 01:03:04;;;;;;;56.50;29.00;;;;;;;;;;4939142;28;93792;-72
2022/03/10 01:05:31;;;;;;;55.85;29.92;;;;;;;;;;4939379;28;92253;-72
2022/03/10 01:07:57;;;;;;;51.83;28.33;;;;;;;;;;4938917;28;93074;-72
2022/03/10 01:10:24;;;;;;;49.67;28.85;;;;;;;;;;4939035;28;94221;-72
2022/03/10 01:12:50;;;;;;;56.85;30.55;;;;;;;;;;4939237;28;92243;-72
2022/03/10 01:15:18;;;;;;;57.20;30.15;;;;;;;;;;4942488;28;93886;-72
2022/03/10 01:17:44;;;;;;;48.88;28.42;;;;;;;;;;4939055;28;92257;-72
2022/03/10 01:20:14;;;;;;;49.92;28.88;;;;;;;;;;4936760;28;94937;-72
2022/03/10 01:22:40;;;;;;;59.42;30.77;;;;;;;;;;4936874;28;96193;-72
2022/03/10 01:25:08;;;;;;;48.60;28.23;;;;;;;;;;4939004;28;92148;-71
2022/03/10 01:27:34;;;;;;;55.85;28.75;;;;;;;;;;4939177;28;92817;-72
2022/03/10 01:30:01;;;;;;;54.25;28.75;;;;;;;;;;4938520;28;93898;-71
2022/03/10 01:32:30;;;;;;;57.63;27.35;;;;;;;;;;4938783;28;92313;-71
2022/03/10 01:34:56;;;;;;;52.03;28.02;;;;;;;;;;4937208;28;94588;-72
2022/03/10 01:37:23;;;;;;;58.33;29.05;;;;;;;;;;4941568;28;93016;-72
2022/03/10 01:39:49;;;;;;;52.13;29.27;;;;;;;;;;4939217;28;92865;-72
2022/03/10 01:42:16;;;;;;;53.78;28.92;;;;;;;;;;4938424;28;93649;-71
2022/03/10 01:44:42;;;;;;;51.95;29.60;;;;;;;;;;4938702;28;92185;-71
2022/03/10 01:47:10;;;;;;;52.03;28.65;;;;;;;;;;4936714;28;94714;-71
2022/03/10 01:49:37;;;;;;;57.95;28.30;;;;;;;;;;4938044;28;93357;-71
2022/03/10 01:52:03;;;;;;;54.17;28.40;;;;;;;;;;4938400;28;92285;-73
2022/03/10 01:54:30;;;;;;;57.47;28.95;;;;;;;;;;4937130;28;96398;-72
2022/03/10 01:56:56;;;;;;;55.55;28.42;;;;;;;;;;4938247;28;93668;-72
2022/03/10 01:59:23;;;;;;;52.70;28.30;;;;;;;;;;4941610;28;92348;-72
2022/03/10 02:01:49;;;;;;;52.42;28.13;;;;;;;;;;4938330;28;92893;-72
2022/03/10 02:04:16;;;;;;;54.50;28.05;;;;;;;;;;4938828;28;92070;-72
2022/03/10 02:06:43;;;;;;;52.42;26.40;;;;;;;;;;4938232;28;92269;-72
2022/03/10 02:11:55;;;;;;;52.92;28.55;;;;;;;;;;4938311;28;94649;-71
2022/03/10 02:17:41;;;;;;;53.60;28.58;;;;;;;;;;4937985;28;93587;-72
2022/03/10 02:20:00;;;;;;;57.72;28.00;;;;;;;;;;4938356;28;92282;-72
2022/03/10 02:22:27;;;;;;;50.88;29.40;;;;;;;;;;4940948;28;93341;-72
2022/03/10 02:24:53;;;;;;;50.67;27.15;;;;;;;;;;4938138;28;93045;-71
2022/03/10 02:27:24;;;;;;;53.22;27.90;;;;;;;;;;4937841;28;93049;-72
2022/03/10 02:29:51;;;;;;;52.60;28.70;;;;;;;;;;4938370;28;92771;-72
2022/03/10 02:32:18;;;;;;;54.95;29.60;;;;;;;;;;4938282;28;92363;-72
2022/03/10 02:34:44;;;;;;;54.33;28.25;;;;;;;;;;4938031;28;93359;-72
2022/03/10 02:37:11;;;;;;;58.25;28.52;;;;;;;;;;4936225;28;96673;-72
2022/03/10 02:39:38;;;;;;;51.08;27.25;;;;;;;;;;4937489;28;92409;-71
2022/03/10 02:42:05;;;;;;;59.55;28.20;;;;;;;;;;4937720;28;93421;-72
2022/03/10 02:44:32;;;;;;;50.63;27.95;;;;;;;;;;4940605;28;93183;-72
2022/03/10 02:46:58;;;;;;;57.88;28.55;;;;;;;;;;4937262;28;94127;-72
2022/03/10 02:49:25;;;;;;;48.40;27.55;;;;;;;;;;4937518;28;93633;-70
2022/03/10 02:51:51;;;;;;;50.10;27.00;;;;;;;;;;4936570;28;92363;-72
2022/03/10 02:54:17;;;;;;;51.55;27.63;;;;;;;;;;4937776;28;93699;-72
2022/03/10 02:56:49;;;;;;;52.97;27.33;;;;;;;;;;4937511;28;93858;-72
2022/03/10 02:59:16;;;;;;;52.80;27.30;;;;;;;;;;4937770;28;92398;-72
2022/03/10 03:01:42;;;;;;;51.47;28.25;;;;;;;;;;4935946;28;94945;-72
2022/03/10 03:04:08;;;;;;;54.03;29.05;;;;;;;;;;4940148;28;93473;-72
2022/03/10 03:06:35;;;;;;;51.47;27.98;;;;;;;;;;4937117;28;93569;-71
2022/03/10 03:09:01;;;;;;;50.85;27.50;;;;;;;;;;4936838;28;93543;-72
2022/03/10 03:11:28;;;;;;;51.13;27.75;;;;;;;;;;4937493;28;92294;-70
2022/03/10 03:13:56;;;;;;;50.08;26.92;;;;;;;;;;4937219;28;93489;-71
2022/03/10 03:16:24;;;;;;;51.13;27.73;;;;;;;;;;4937281;28;93624;-71
2022/03/10 03:18:51;;;;;;;48.97;27.52;;;;;;;;;;4937555;28;91671;-71
2022/03/10 03:21:18;;;;;;;48.53;27.02;;;;;;;;;;4937034;28;92489;-72
2022/03/10 03:23:45;;;;;;;48.70;26.00;;;;;;;;;;4936968;28;93496;-71
2022/03/10 03:26:12;;;;;;;48.47;28.20;;;;;;;;;;4938811;28;94567;-71
2022/03/10 03:28:38;;;;;;;48.65;27.33;;;;;;;;;;4937007;28;93830;-71
2022/03/10 03:31:05;;;;;;;50.85;26.52;;;;;;;;;;4936987;28;92323;-71
2022/03/10 03:33:31;;;;;;;54.25;27.85;;;;;;;;;;4937123;28;93404;-70
2022/03/10 03:35:58;;;;;;;48.88;26.80;;;;;;;;;;4936687;28;93681;-70
2022/03/10 03:38:24;;;;;;;52.38;26.83;;;;;;;;;;4935838;28;92487;-71
2022/03/10 03:40:51;;;;;;;50.97;27.05;;;;;;;;;;4936861;28;93808;-71
2022/03/10 03:43:17;;;;;;;49.60;27.35;;;;;;;;;;4939180;28;94181;-71
2022/03/10 03:45:43;;;;;;;47.00;26.27;;;;;;;;;;4940997;28;92115;-71
2022/03/10 03:48:10;;;;;;;50.08;27.35;;;;;;;;;;4943757;28;93903;-71
2022/03/10 03:50:36;;;;;;;46.55;25.85;;;;;;;;;;4939150;28;94728;-71
2022/03/10 03:53:02;;;;;;;46.05;25.17;;;;;;;;;;4940595;28;95954;-70
2022/03/10 03:55:29;;;;;;;44.85;26.42;;;;;;;;;;4940713;28;93841;-71
2022/03/10 03:57:55;;;;;;;51.00;26.40;;;;;;;;;;4940308;28;92362;-71
2022/03/10 04:00:21;;;;;;;51.20;26.35;;;;;;;;;;4940157;28;93311;-72
2022/03/10 04:02:48;;;;;;;53.13;26.80;;;;;;;;;;4940030;28;93732;-72
2022/03/10 04:05:15;;;;;;;49.30;26.33;;;;;;;;;;4939577;28;92373;-73
2022/03/10 04:07:42;;;;;;;49.10;26.80;;;;;;;;;;4940415;28;93531;-72
2022/03/10 04:10:08;;;;;;;50.13;27.10;;;;;;;;;;4942955;28;93220;-72
2022/03/10 04:12:35;;;;;;;49.47;25.17;;;;;;;;;;4939994;28;93393;-72
2022/03/10 04:15:01;;;;;;;45.65;26.05;;;;;;;;;;4938212;28;95989;-73
2022/03/10 04:17:28;;;;;;;47.38;26.17;;;;;;;;;;4939046;28;92340;-73
2022/03/10 04:19:54;;;;;;;46.10;24.85;;;;;;;;;;4942863;28;93511;-72
2022/03/10 04:22:20;;;;;;;46.83;26.02;;;;;;;;;;4942249;28;92645;-72
2022/03/10 04:24:47;;;;;;;50.83;26.30;;;;;;;;;;4940162;28;92554;-72
2022/03/10 04:27:13;;;;;;;51.70;26.27;;;;;;;;;;4939926;28;93461;-72
2022/03/10 04:29:39;;;;;;;47.25;24.95;;;;;;;;;;4939638;28;93639;-72
2022/03/10 04:32:06;;;;;;;49.35;24.52;;;;;;;;;;4943349;28;91399;-72
2022/03/10 04:34:32;;;;;;;46.03;26.38;;;;;;;;;;4939134;28;93515;-72
2022/03/10 04:36:59;;;;;;;48.00;25.90;;;;;;;;;;4939757;28;92116;-72
2022/03/10 04:39:25;;;;;;;53.15;26.05;;;;;;;;;;4938222;28;94788;-72
2022/03/10 04:41:51;;;;;;;45.97;25.48;;;;;;;;;;4939355;28;93517;-72
2022/03/10 04:44:18;;;;;;;45.42;24.92;;;;;;;;;;4939520;28;92241;-73
2022/03/10 04:46:44;;;;;;;45.75;24.90;;;;;;;;;;4939234;28;93552;-72
2022/03/10 04:49:11;;;;;;;45.45;26.10;;;;;;;;;;4939214;28;93162;-73
2022/03/10 04:51:37;;;;;;;47.70;25.35;;;;;;;;;;4939513;28;92314;-71
2022/03/10 04:54:04;;;;;;;47.92;25.77;;;;;;;;;;4941124;28;93435;-72
2022/03/10 04:56:30;;;;;;;49.80;25.00;;;;;;;;;;4940052;28;91609;-72
2022/03/10 04:58:56;;;;;;;46.75;24.13;;;;;;;;;;4939180;28;94830;-72
2022/03/10 05:01:23;;;;;;;52.13;24.85;;;;;;;;;;4938836;28;93577;-73
2022/03/10 05:03:50;;;;;;;46.97;24.60;;;;;;;;;;4937402;28;94790;-72
2022/03/10 05:06:18;;;;;;;46.15;24.23;;;;;;;;;;4939139;28;95829;-72
2022/03/10 05:08:45;;;;;;;46.85;24.20;;;;;;;;;;4939257;28;93676;-72
2022/03/10 05:11:11;;;;;;;45.85;24.02;;;;;;;;;;4939309;28;92256;-72
2022/03/10 05:13:38;;;;;;;46.00;24.48;;;;;;;;;;4942039;28;93582;-71
2022/03/10 05:16:04;;;;;;;44.53;24.52;;;;;;;;;;4937874;28;92522;-71
2022/03/10 05:18:33;;;;;;;46.42;24.42;;;;;;;;;;4938478;28;94714;-72
2022/03/10 05:20:59;;;;;;;45.17;24.30;;;;;;;;;;4939410;28;92709;-71
2022/03/10 05:23:26;;;;;;;45.03;23.83;;;;;;;;;;4938679;28;92714;-73
2022/03/10 05:25:54;;;;;;;46.95;24.17;;;;;;;;;;4938018;28;93216;-72
2022/03/10 05:28:21;;;;;;;49.53;24.35;;;;;;;;;;4937006;28;95951;-72
2022/03/10 05:30:48;;;;;;;43.15;24.30;;;;;;;;;;4938877;28;92340;-72
2022/03/10 05:33:15;;;;;;;39.40;23.00;;;;;;;;;;4937858;28;93487;-71
2022/03/10 05:35:41;;;;;;;46.90;23.08;;;;;;;;;;4941803;28;93703;-71
2022/03/10 05:38:08;;;;;;;43.58;23.73;;;;;;;;;;4938157;28;94229;-71
2022/03/10 05:40:34;;;;;;;50.95;25.15;;;;;;;;;;4938541;28;92623;-72
2022/03/10 05:43:01;;;;;;;48.22;23.42;;;;;;;;;;4938579;28;92353;-71
2022/03/10 05:45:27;;;;;;;42.70;23.38;;;;;;;;;;4939252;28;92865;-72
2022/03/10 05:47:54;;;;;;;45.17;23.88;;;;;;;;;;4938186;28;92867;-72
2022/03/10 05:50:22;;;;;;;46.05;24.42;;;;;;;;;;4938639;28;92156;-72
2022/03/10 05:52:49;;;;;;;43.72;23.85;;;;;;;;;;4936850;28;94878;-71
2022/03/10 05:55:16;;;;;;;42.83;23.38;;;;;;;;;;4938488;28;93069;-71
2022/03/10 05:57:45;;;;;;;47.92;23.80;;;;;;;;;;4941384;28;92311;-70
2022/03/10 06:00:14;;;;;;;49.65;24.42;;;;;;;;;;4938128;28;93433;-71
2022/03/10 06:02:41;;;;;;;48.17;23.92;;;;;;;;;;4938054;28;92314;-72
2022/03/10 06:05:08;;;;;;;42.80;23.75;;;;;;;;;;4937336;28;93491;-72
2022/03/10 06:07:34;;;;;;;49.40;25.17;;;;;;;;;;4937814;28;93627;-71
2022/03/10 06:10:01;;;;;;;49.88;23.75;;;;;;;;;;4938549;28;91991;-71
2022/03/10 06:12:27;;;;;;;42.78;23.23;;;;;;;;;;4938145;28;92717;-71
2022/03/10 06:14:57;;;;;;;46.63;23.80;;;;;;;;;;4937921;28;94405;-72
2022/03/10 06:17:24;;;;;;;40.50;22.80;;;;;;;;;;4936337;28;94704;-72
2022/03/10 06:19:51;;;;;;;48.85;24.23;;;;;;;;;;4940435;28;97410;-72
2022/03/10 06:22:22;;;;;;;48.00;24.35;;;;;;;;;;4937908;28;92205;-71
2022/03/10 06:24:48;;;;;;;49.40;23.50;;;;;;;;;;4938162;28;93454;-71
2022/03/10 06:27:16;;;;;;;46.22;23.80;;;;;;;;;;4937906;28;93621;-72
2022/03/10 06:29:43;;;;;;;48.67;25.08;;;;;;;;;;4942760;28;92251;-72
2022/03/10 06:32:12;;;;;;;58.40;25.00;;;;;;;;;;4926209;28;94792;-73
2022/03/10 06:34:39;;;;;;;50.75;24.15;;;;;;;;;;4937980;28;92905;-71
2022/03/10 06:37:06;;;;;;;46.65;23.65;;;;;;;;;;4937930;28;92228;-72
2022/03/10 06:39:33;;;;;;;44.63;24.80;;;;;;;;;;4937714;28;93879;-72
2022/03/10 06:42:00;;;;;;;57.13;24.60;;;;;;;;;;4939104;28;95989;-71
2022/03/10 06:44:26;;;;;;;58.10;25.13;;;;;;;;;;4936452;28;96242;-71
2022/03/10 06:46:53;;;;;;;46.95;23.80;;;;;;;;;;4936889;28;93577;-71
2022/03/10 06:49:21;;;;;;;51.40;24.40;;;;;;;;;;4937745;28;92301;-71
2022/03/10 06:51:48;;;;;;;48.13;24.17;;;;;;;;;;4937528;28;93575;-71
2022/03/10 06:54:15;;;;;;;58.85;25.27;;;;;;;;;;4936367;28;94551;-71
2022/03/10 06:56:42;;;;;;;50.38;24.77;;;;;;;;;;4937226;28;94111;-70
2022/03/10 06:59:08;;;;;;;47.17;24.98;;;;;;;;;;4938104;28;93080;-70
2022/03/10 07:01:34;;;;;;;51.10;25.77;;;;;;;;;;4937119;28;93751;-69
2022/03/10 07:04:01;;;;;;;47.80;25.13;;;;;;;;;;4940255;28;92235;-70
2022/03/10 07:06:28;;;;;;;41.08;23.23;;;;;;;;;;4935711;28;95745;-72
2022/03/10 07:08:54;;;;;;;46.15;24.25;;;;;;;;;;4937457;28;92816;-69
2022/03/10 07:11:21;;;;;;;44.38;23.83;;;;;;;;;;4937202;28;93525;-69
2022/03/10 07:13:47;;;;;;;40.63;23.95;;;;;;;;;;4936980;28;92910;-69
2022/03/10 07:16:14;;;;;;;45.00;23.38;;;;;;;;;;4936501;28;92325;-69
2022/03/10 07:18:40;;;;;;;40.47;23.83;;;;;;;;;;4936545;28;93682;-70
2022/03/10 07:21:07;;;;;;;46.40;24.77;;;;;;;;;;4937097;28;94141;-72
2022/03/10 07:23:33;;;;;;;48.92;24.17;;;;;;;;;;4940596;28;92142;-70
2022/03/10 07:25:59;;;;;;;44.42;24.77;;;;;;;;;;4937057;28;93751;-70
2022/03/10 07:28:27;;;;;;;44.42;25.30;;;;;;;;;;4937197;28;92256;-70
2022/03/10 07:30:54;;;;;;;50.03;26.05;;;;;;;;;;4935115;28;94684;-73
2022/03/10 07:33:21;;;;;;;46.40;25.02;;;;;;;;;;4936305;28;95197;-70
2022/03/10 07:35:48;;;;;;;44.35;24.63;;;;;;;;;;4937049;28;92387;-70
2022/03/10 07:38:14;;;;;;;47.47;27.08;;;;;;;;;;4936976;28;93597;-70
2022/03/10 07:40:41;;;;;;;43.05;25.70;;;;;;;;;;4936866;28;93574;-71
2022/03/10 07:43:08;;;;;;;46.22;24.92;;;;;;;;;;4936786;28;93027;-72
2022/03/10 07:45:34;;;;;;;38.25;23.13;;;;;;;;;;4939323;28;94807;-71
2022/03/10 07:48:01;;;;;;;38.03;22.05;;;;;;;;;;4937037;28;91644;-71
2022/03/10 07:50:27;;;;;;;42.25;22.70;;;;;;;;;;4935661;28;94255;-72
2022/03/10 07:52:54;;;;;;;43.20;22.50;;;;;;;;;;4936373;28;92982;-70
2022/03/10 07:55:20;;;;;;;38.88;22.35;;;;;;;;;;4935278;28;94658;-69
2022/03/10 07:57:47;;;;;;;42.42;22.85;;;;;;;;;;4936386;28;96688;-72
2022/03/10 08:00:13;;;;;;;41.92;23.05;;;;;;;;;;4936540;28;92926;-71
2022/03/10 08:02:39;;;;;;;40.40;23.58;;;;;;;;;;4936708;28;92501;-72
2022/03/10 08:05:07;;;;;;;36.38;22.88;;;;;;;;;;4936423;28;94762;-72
2022/03/10 08:07:34;;;;;;;33.53;21.85;;;;;;;;;;4939737;28;93677;-71
2022/03/10 08:10:01;;;;;;;35.97;22.35;;;;;;;;;;4936723;28;93628;-72
2022/03/10 08:12:28;;;;;;;41.92;22.42;;;;;;;;;;4936533;28;92711;-72
2022/03/10 08:14:55;;;;;;;36.45;22.65;;;;;;;;;;4936648;28;92268;-70
2022/03/10 08:17:22;;;;;;;39.47;22.60;;;;;;;;;;4936369;28;93312;-71
2022/03/10 08:19:49;;;;;;;43.42;22.70;;;;;;;;;;4933775;28;96391;-70
2022/03/10 08:22:15;;;;;;;36.95;22.00;;;;;;;;;;4936612;28;92476;-69
2022/03/10 08:24:43;;;;;;;41.47;21.83;;;;;;;;;;4936100;28;94699;-72
2022/03/10 08:27:11;;;;;;;33.33;21.83;;;;;;;;;;4936087;28;94059;-70
2022/03/10 08:29:38;;;;;;;39.15;22.88;;;;;;;;;;4942034;28;92356;-70
2022/03/10 08:32:09;;;;;;;;;;;;;;;;;;4939931;28;93908;-71
2022/03/10 08:34:42;;;;;;;34.95;21.30;;;;;;;;;;4939633;28;119786;-70
2022/03/10 08:37:08;;;;;;;41.42;22.00;;;;;;;;;;4939878;28;93729;-72
2022/03/10 08:39:35;;;;;;;40.22;21.95;;;;;;;;;;4938759;28;94513;-70
2022/03/10 08:42:02;;;;;;;38.17;21.98;;;;;;;;;;4938617;28;92465;-71
2022/03/10 08:44:28;;;;;;;36.42;21.75;;;;;;;;;;4940284;28;94750;-71
2022/03/10 08:46:55;;;;;;;34.00;23.20;;;;;;;;;;4938515;28;93012;-71
2022/03/10 08:49:21;;;;;;;33.63;22.90;;;;;;;;;;4918813;28;92401;-71
2022/03/10 08:51:49;;;;;;;34.30;21.23;;;;;;;;;;4941606;28;93544;-72
2022/03/10 08:54:16;;;;;;;33.88;21.40;;;;;;;;;;4938202;28;93293;-72
2022/03/10 08:56:42;;;;;;;36.45;22.23;;;;;;;;;;4938738;28;93435;-72
2022/03/10 08:59:08;;;;;;;37.00;22.27;;;;;;;;;;4940876;28;93096;-72
2022/03/10 09:01:35;;;;;;;33.85;21.90;;;;;;;;;;4939009;28;91624;-72
2022/03/10 09:04:02;;;;;;;33.25;21.40;;;;;;;;;;4937599;28;94179;-72
2022/03/10 09:06:29;;;;;;;38.50;22.20;;;;;;;;;;4939128;28;93090;-72
2022/03/10 09:08:55;;;;;;;38.00;21.70;;;;;;;;;;4933247;28;94737;-71
2022/03/10 09:11:24;;;;;;;39.45;22.23;;;;;;;;;;4942581;28;95769;-72
2022/03/10 09:13:50;;;;;;;38.58;23.42;;;;;;;;;;4940384;28;93646;-71
2022/03/10 09:16:18;;;;;;;33.22;22.20;;;;;;;;;;4941867;28;93883;-71
2022/03/10 09:18:48;;;;;;;32.83;21.45;;;;;;;;;;4941804;28;92978;-72
2022/03/10 09:21:17;;;;;;;36.63;22.15;;;;;;;;;;4943783;28;92425;-73
2022/03/10 09:23:44;;;;;;;36.28;21.75;;;;;;;;;;4938042;28;93485;-72
2022/03/10 09:26:11;;;;;;;37.67;22.52;;;;;;;;;;4939732;28;92925;-72
2022/03/10 09:28:37;;;;;;;35.55;22.67;;;;;;;;;;4938298;28;92349;-71
2022/03/10 09:31:04;;;;;;;36.20;22.23;;;;;;;;;;4938493;28;92856;-72
2022/03/10 09:33:31;;;;;;;41.17;23.55;;;;;;;;;;4939129;28;96785;-72
2022/03/10 09:35:57;;;;;;;35.20;22.75;;;;;;;;;;4936608;28;96074;-72
2022/03/10 09:38:23;;;;;;;38.13;23.50;;;;;;;;;;4938021;28;93512;-69
2022/03/10 09:40:53;;;;;;;34.40;22.60;;;;;;;;;;4937357;28;92338;-70
2022/03/10 09:43:27;;;;;;;32.70;22.58;;;;;;;;;;4938980;28;93368;-71
2022/03/10 09:45:53;;;;;;;32.53;22.60;;;;;;;;;;4938781;28;94606;-71
2022/03/10 09:48:20;;;;;;;39.95;23.60;;;;;;;;;;4935119;28;94212;-73
2022/03/10 09:50:47;;;;;;;36.97;22.38;;;;;;;;;;4938560;28;92823;-70
2022/03/10 09:53:14;;;;;;;37.03;22.85;;;;;;;;;;4937960;28;93301;-72
2022/03/10 09:55:41;;;;;;;37.58;23.25;;;;;;;;;;4940918;28;92273;-71
2022/03/10 09:58:09;;;;;;;36.70;22.70;;;;;;;;;;4938241;28;96272;-71
2022/03/10 10:00:39;;;;;;;37.42;22.52;;;;;;;;;;4936426;28;92411;-72
2022/03/10 10:03:05;;;;;;;34.90;22.50;;;;;;;;;;4937443;28;93002;-72
2022/03/10 10:05:36;;;;;;;36.85;23.58;;;;;;;;;;4937524;28;93682;-71
2022/03/10 10:08:04;;;;;;;33.70;22.05;;;;;;;;;;4940394;28;92445;-71
2022/03/10 10:10:31;;;;;;;36.40;22.30;;;;;;;;;;4937550;28;93349;-71
2022/03/10 10:13:06;;;;;;;33.92;23.13;;;;;;;;;;4919189;28;93676;-72
2022/03/10 10:15:38;;;;;;;35.53;23.85;;;;;;;;;;4937887;28;91674;-71
2022/03/10 10:18:06;;;;;;;34.83;23.50;;;;;;;;;;4940314;28;92760;-71
2022/03/10 10:20:52;;;;;;;35.30;22.55;;;;;;;;;;4933574;28;92331;-72
2022/03/10 10:23:26;;;;;;;34.58;22.67;;;;;;;;;;4935854;28;94720;-71
2022/03/10 10:25:53;;;;;;;43.55;23.10;;;;;;;;;;4936924;28;94954;-71
2022/03/10 10:28:45;;;;;;;36.53;22.92;;;;;;;;;;4933703;28;92222;-72
2022/03/10 10:31:13;;;;;;;34.03;22.55;;;;;;;;;;4935485;28;93163;-71
2022/03/10 10:33:41;;;;;;;40.97;24.05;;;;;;;;;;4937220;28;93645;-72
2022/03/10 10:36:12;;;;;;;36.20;23.60;;;;;;;;;;4936827;28;92707;-73
2022/03/10 10:38:38;;;;;;;35.85;23.30;;;;;;;;;;4936040;28;93953;-72
2022/03/10 10:41:17;;;;;;;45.25;22.65;;;;;;;;;;4940658;28;91677;-71
2022/03/10 10:43:47;;;;;;;36.53;22.52;;;;;;;;;;4936179;28;93131;-73
2022/03/10 10:46:21;;;;;;;32.92;22.83;;;;;;;;;;4937857;28;93981;-70
2022/03/10 10:48:47;;;;;;;34.10;21.95;;;;;;;;;;4935378;28;94727;-71
2022/03/10 10:51:14;;;;;;;31.50;21.52;;;;;;;;;;4936188;28;96184;-74
2022/03/10 10:53:41;;;;;;;37.33;23.83;;;;;;;;;;4936720;28;93292;-72
2022/03/10 10:56:07;;;;;;;35.90;22.38;;;;;;;;;;4942175;28;92375;-73
2022/03/10 10:58:34;;;;;;;35.47;22.27;;;;;;;;;;4935917;28;95140;-72
2022/03/10 11:01:01;;;;;;;34.83;21.92;;;;;;;;;;4936975;28;93646;-72
2022/03/10 11:03:31;;;;;;;33.63;23.05;;;;;;;;;;4939509;28;92785;-72
2022/03/10 11:05:58;;;;;;;33.70;24.15;;;;;;;;;;4937453;28;92365;-72
2022/03/10 11:08:26;;;;;;;39.05;23.33;;;;;;;;;;4936799;28;93949;-73
2022/03/10 11:10:53;;;;;;;35.50;22.23;;;;;;;;;;4936630;28;93595;-71
2022/03/10 11:13:23;;;;;;;36.67;23.98;;;;;;;;;;4935263;28;96123;-72
2022/03/10 11:15:50;;;;;;;35.95;21.63;;;;;;;;;;4936582;28;92534;-73
2022/03/10 11:18:20;;;;;;;32.92;20.63;;;;;;;;;;4938697;28;93593;-71
2022/03/10 11:20:49;;;;;;;34.05;23.13;;;;;;;;;;4936774;28;93421;-71
2022/03/10 11:23:33;;;;;;;31.25;22.20;;;;;;;;;;4939883;28;92354;-75
2022/03/10 11:26:09;;;;;;;31.77;21.48;;;;;;;;;;4939399;28;93077;-72
2022/03/10 11:28:41;;;;;;;32.22;22.17;;;;;;;;;;4937063;28;92266;-72
2022/03/10 11:31:09;;;;;;;36.10;23.17;;;;;;;;;;4936298;28;95163;-72
2022/03/10 11:33:36;;;;;;;38.88;22.60;;;;;;;;;;4935360;28;93530;-72
2022/03/10 11:36:19;;;;;;;35.70;22.02;;;;;;;;;;4935178;28;93071;-73
2022/03/10 11:38:56;;;;;;;36.25;22.98;;;;;;;;;;4935071;28;96070;-71
2022/03/10 11:41:24;;;;;;;34.22;21.55;;;;;;;;;;4931910;28;93970;-73
2022/03/10 11:44:00;;;;;;;34.03;22.15;;;;;;;;;;4936300;28;92424;-74
2022/03/10 11:46:28;;;;;;;33.22;20.35;;;;;;;;;;4940261;28;93417;-72
2022/03/10 11:49:24;;;;;;;35.92;21.38;;;;;;;;;;4936282;28;93567;-72
2022/03/10 11:51:56;;;;;;;35.88;21.98;;;;;;;;;;4938130;28;92748;-72
2022/03/10 11:54:24;;;;;;;33.90;21.77;;;;;;;;;;4935953;28;93451;-72
2022/03/10 11:56:50;;;;;;;35.05;20.83;;;;;;;;;;4938273;28;92540;-71
2022/03/10 11:59:17;;;;;;;29.02;21.83;;;;;;;;;;4935409;28;92225;-72
2022/03/10 12:01:43;;;;;;;31.65;21.17;;;;;;;;;;4936142;28;93643;-72
2022/03/10 12:04:15;;;;;;;38.95;22.10;;;;;;;;;;4931937;28;95499;-73
2022/03/10 12:06:42;;;;;;;;;;;;;;;;;;4937031;28;95845;-73
2022/03/10 12:09:11;;;;;;;35.38;21.65;;;;;;;;;;4942285;28;120550;-72
2022/03/10 12:11:48;;;;;;;37.95;21.40;;;;;;;;;;4939500;28;93490;-72
2022/03/10 12:14:23;;;;;;;30.90;21.83;;;;;;;;;;4935998;28;94098;-75
2022/03/10 12:16:49;;;;;;;32.28;21.17;;;;;;;;;;4941823;28;92341;-72
2022/03/10 12:19:18;;;;;;;31.65;20.27;;;;;;;;;;4939342;28;93390;-72
2022/03/10 12:21:44;;;;;;;31.50;20.67;;;;;;;;;;4939573;28;93272;-73
2022/03/10 12:24:11;;;;;;;29.52;20.90;;;;;;;;;;4939305;28;92459;-72
2022/03/10 12:26:44;;;;;;;32.65;20.95;;;;;;;;;;4942045;28;94721;-72
2022/03/10 12:29:12;;;;;;;33.83;20.73;;;;;;;;;;4936947;28;96757;-72
2022/03/10 12:31:39;;;;;;;31.73;20.88;;;;;;;;;;4941988;28;92354;-72
2022/03/10 12:34:13;;;;;;;36.08;21.13;;;;;;;;;;4938834;28;93862;-73
2022/03/10 12:36:43;;;;;;;38.30;22.17;;;;;;;;;;4939342;28;92350;-72
2022/03/10 12:39:11;;;;;;;38.00;22.10;;;;;;;;;;4939395;28;93449;-72
2022/03/10 12:41:38;;;;;;;35.22;22.13;;;;;;;;;;4939211;28;93805;-72
2022/03/10 12:44:09;;;;;;;36.80;20.75;;;;;;;;;;4939399;28;92500;-72
2022/03/10 12:46:37;;;;;;;29.70;19.40;;;;;;;;;;4939907;28;93101;-73
2022/03/10 12:49:10;;;;;;;30.17;19.17;;;;;;;;;;4938540;28;93609;-72
2022/03/10 12:51:37;;;;;;;28.05;18.95;;;;;;;;;;4939789;28;92277;-73
2022/03/10 12:54:05;;;;;;;27.23;18.15;;;;;;;;;;4940402;28;94564;-73
2022/03/10 12:56:46;;;;;;;30.88;19.30;;;;;;;;;;4939497;28;92197;-73
2022/03/10 12:59:13;;;;;;;33.05;19.52;;;;;;;;;;4939175;28;93683;-74
2022/03/10 13:01:40;;;;;;;30.90;20.35;;;;;;;;;;4939033;28;93622;-74
2022/03/10 13:04:13;;;;;;;30.63;18.10;;;;;;;;;;4939004;28;92298;-74
2022/03/10 13:06:40;;;;;;;23.98;17.35;;;;;;;;;;4938444;28;94665;-74
2022/03/10 13:09:08;;;;;;;28.27;17.58;;;;;;;;;;4936518;28;93526;-73
2022/03/10 13:11:36;;;;;;;25.63;18.65;;;;;;;;;;4937800;28;91867;-74
2022/03/10 13:14:10;;;;;;;31.20;18.67;;;;;;;;;;4938262;28;92375;-74
2022/03/10 13:16:38;;;;;;;27.23;18.17;;;;;;;;;;4940338;28;93688;-74
2022/03/10 13:19:05;;;;;;;29.70;18.50;;;;;;;;;;4936643;28;94725;-73
2022/03/10 13:21:31;;;;;;;27.38;18.67;;;;;;;;;;4938866;28;93692;-74
2022/03/10 13:23:57;;;;;;;26.95;19.48;;;;;;;;;;4938594;28;92292;-76
2022/03/10 13:26:27;;;;;;;31.23;18.63;;;;;;;;;;4938818;28;92308;-75
2022/03/10 13:28:54;;;;;;;30.70;19.13;;;;;;;;;;4938836;28;93648;-75
2022/03/10 13:31:28;;;;;;;27.23;18.70;;;;;;;;;;4937610;28;93252;-74
2022/03/10 13:33:56;;;;;;;28.85;18.75;;;;;;;;;;4938851;28;92690;-76
2022/03/10 13:36:24;;;;;;;29.35;19.98;;;;;;;;;;4942082;28;92745;-75
2022/03/10 13:38:51;;;;;;;27.88;19.95;;;;;;;;;;4938576;28;92771;-74
2022/03/10 13:41:17;;;;;;;28.90;19.73;;;;;;;;;;4938684;28;93213;-74
2022/03/10 13:43:44;;;;;;;26.38;18.90;;;;;;;;;;4936922;28;94879;-74
2022/03/10 13:46:16;;;;;;;29.67;20.02;;;;;;;;;;4937459;28;95996;-73
2022/03/10 13:48:47;;;;;;;31.27;19.33;;;;;;;;;;4938265;28;92360;-75
2022/03/10 13:51:14;;;;;;;30.15;19.90;;;;;;;;;;4937433;28;92418;-74
2022/03/10 13:53:51;;;;;;;27.90;20.45;;;;;;;;;;4938452;28;93515;-74
2022/03/10 13:56:26;;;;;;;27.48;19.92;;;;;;;;;;4936247;28;93603;-75
2022/03/10 13:58:53;;;;;;;36.22;20.15;;;;;;;;;;4940740;28;92366;-73
2022/03/10 14:01:23;;;;;;;30.13;19.98;;;;;;;;;;4938316;28;92876;-76
2022/03/10 14:03:52;;;;;;;31.35;21.00;;;;;;;;;;4937731;28;92336;-74
2022/03/10 14:06:18;;;;;;;28.25;19.95;;;;;;;;;;4937458;28;93404;-74
2022/03/10 14:08:49;;;;;;;37.28;21.40;;;;;;;;;;4935580;28;96021;-74
2022/03/10 14:11:15;;;;;;;33.40;20.23;;;;;;;;;;4937383;28;92457;-74
2022/03/10 14:13:43;;;;;;;31.50;21.42;;;;;;;;;;4937422;28;93433;-74
2022/03/10 14:16:15;;;;;;;37.83;21.17;;;;;;;;;;4937644;28;94006;-74
2022/03/10 14:18:49;;;;;;;28.60;20.30;;;;;;;;;;4937329;28;92229;-74
2022/03/10 14:21:16;;;;;;;30.80;21.55;;;;;;;;;;4940545;28;93504;-74
2022/03/10 14:23:43;;;;;;;30.55;20.63;;;;;;;;;;4937479;28;92312;-76
2022/03/10 14:26:11;;;;;;;32.38;20.88;;;;;;;;;;4938758;28;93355;-75
2022/03/10 14:28:47;;;;;;;32.10;20.58;;;;;;;;;;4933880;28;94130;-75